EB1EHT-D
43.32.47N 005.40.40W
IN73DM aprs.fi
zuletzt gehoert:
2022-11-26T18:45:53Z
zuerst gehoert:
2022-08-11T17:53:18Z

APRS Gijón/Xixón [IN73DM], 2 Stunde(n), EB1EHT-D [05:54:51, 0s].
EA1IEJ 43.31.81N 005.40.64WIN73DM 1.011km 212°SSW04:51:24ZMMDVM DMO 222.3400/222.3400 CC1(3EA1IEJ-11)
MMDVM MMDVM HS Hat 438.8500/438.8500 CC6(2EA1IEJ-1)
EA1FFA 43.31.53N 005.40.64WIN73DM 1.476km 201°SSW04:51:33ZMMDVM MMDVM HS Hat 438.8000/438.8000 CC1(3EA1FFA-1)
EA1DZR 43.31.47N 005.40.00WIN73DM 1.536km 168°SSE04:51:18ZMMDVM DV ADER 434.3500/434.3500 CC1(3EA1DZR-4)
MMDVM DVMega 431.1000/431.1000 CC1(2EA1DZR-1)
MMDVM MMDVM HS Hat 432.2000/432.2000 CC2(2EA1DZR-2)
LEEL 43.32.98N 005.41.71WIN73DN 2.372km 303°WNW04:30:04ZHelipuerto de El Musel: LEAS 270330Z 23006KT CAVOK 12/05 Q1020=
EB1TK 43.32.22N 005.42.32WIN73DM 2.796km 268°W04:45:15ZWind 212°/005kn, Böen bis 009kn, Temp 13.33c, Regen 0.0mm, letzte 24h 0.0mm, seit 0h 0.0mm, Baro 1022.2h, Hum: 62%(3EB1TK-13)
EA4ACU 43.29.56N 005.38.92WIN73EL 5.325km 161°SSE04:52:02ZMMDVM MMDVM HS Hat 432.7000/432.7000 CC1(3EA4ACU-1)
EB1GEM 43.30.00N 005.36.07WIN73EM 7.008km 127°SE04:42:19ZWX3in1Plus2.0 U=13.3V,T=??.?C/??.?F(3EB1GEM-3)
ED1ZAE 43.27.99N 005.40.54WIN73DL 7.964km 183°S04:49:58ZWIDE3-3 ESAS3-3 IN73DL WWW.EA1URG.ORG(3ED1ZAE-3)
ED1ZAS 43.27.52N 005.40.17WIN73DL 8.806km 179°S04:49:27ZRD985 438.2250/430.6250 CC1
EA1JW 43.31.35N 005.28.83WIN73GM 15.425km 96°E04:51:09ZMMDVM MMDVM HS Hat 436.5000/436.5000 CC1(3EA1JW-3)
LEGM 43.26.15N 005.49.84WIN73CK 17.183km 229°SW04:30:03ZHelipuerto de La Morgal (123.500MHz): LEAS 270330Z 23006KT CAVOK 12/05 Q1020=
EA1ABW 43.24.77N 005.47.77WIN73CJ 17.205km 216°SW04:50:58ZMMDVM MMDVM HS Hat 439.8250/439.8250 CC1(3EA1ABW-2)
LEMR 43.25.83N 005.49.60WIN73CK 17.367km 227°SW04:30:03ZAerodromo de la Morgal (123.500MHz): LEAS 270330Z 23006KT CAVOK 12/05 Q1020=
EA1AHA 43.32.72N 005.54.38WIN73BN 19.010km 273°W04:31:05ZWind 000°/000kn, Böen bis 000kn, Temp 10.00c, Regen 0.0mm, letzte 24h 0.0mm, seit 0h 0.0mm, Baro 1021.4h, Hum: 70%(3EA1AHA-13)
EA1FHR 43.28.72N 005.26.41WIN73GL 19.711km 109°ESE04:49:57ZMMDVM MMDVM HS Hat 439.1500/439.1500 CC1
EA1HWD 43.28.96N 005.26.30WIN73GL 19.719km 108°ESE04:50:12ZMMDVM MMDVM HS Hat 434.2500/434.2500 CC1
EA1FLQ 43.22.00N 005.36.35WIN73EI 19.754km 165°SSE04:50:09ZMMDVM DVMega 430.9750/430.9750 CC1
EA1DZL 43.33.56N 005.55.78WIN73AN 21.004km 277°W04:52:30ZMMDVM MMDVM HS Hat 438.8000/438.8000 CC1(3EA1DZL-1)
LEHU 43.22.63N 005.49.57WIN73CJ 21.856km 215°SW04:30:03ZHelipuerto del HUCA: LEAS 270330Z 23006KT CAVOK 12/05 Q1020=
ED1ZAY 43.29.47N 005.56.54WIN73AL 22.523km 257°WSW04:49:31ZRD625 438.3000/430.7000 CC1
ED1ZAU 43.23.04N 005.52.75WIN73BJ 24.017km 225°SW04:49:28ZRD625 438.5000/430.9000 CC1
EA1JBU 43.21.85N 005.51.13WIN73BI 24.262km 217°SW04:32:05ZEA1JBU(3EA1JBU-1)
33D00 43.21.63N 005.51.13WIN73BI 24.580km 217°SW04:01:41Z33-D-00 Protección Civil REMER / Delegación del Gobierno en Asturias
EA1JAY 43.21.54N 005.51.34WIN73BI 24.891km 217°SW04:30:05ZEA1JAY(3EA1JAY-2)
434.525MHz Nodo TETRA DMO(2EA1JAY-4)
EA1HJA 43.21.47N 005.52.09WIN73BI 25.596km 219°SW04:44:09Z IN73FL WX3IN1+ 2.0 - V=13.3V,TX TEMP=22.4C(3EA1HJA-2)
IN73FL WX3IN1+ 2.0 - V=13.0V,TX TEMP=42.0C(2EA1HJA)
EA1L 43.20.37N 005.51.13WIN73BI 26.477km 214°SW04:50:07ZWind 220°/000kn, Böen bis 000kn, Temp 7.22c, Regen 0.0mm, letzte 24h 0.0mm, seit 0h 0.0mm, Baro 1018.4h, Hum: 81%(3EA1L-13)
EA1HWX 43.19.28N 005.50.98WIN73BH 28.094km 211°SSW04:51:36ZDMO - UHF 439.7250/431.0000 CC11(3EA1HWX-2)
MMDVM DMO 222.3400/222.3400 CC1(2EA1HWX-10)
EA1JBE 43.30.90N 005.16.15WIN73IM 32.466km 94°E04:53:01ZMAIN QTH http://qrz.com/db/ea1jbe(3EA1JBE-1)
MAIN QTH http://qrz.com/db/ea1jbe(2EA1JBE-13)
EA1IMW 43.14.36N 005.46.93WIN73CF 34.409km 195°SSW04:51:18ZGRUPO RADIO GALENA (GRG) 430.4500/430.4500 CC1(3EA1IMW-1)
EA1JBL 43.12.28N 005.47.42WIN73CE 38.289km 195°SSW04:50:11ZMMDVM DVMega 435.3000/435.3000 CC1
EA1HWA 43.12.00N 005.47.40WIN73CE 38.799km 194°SSW04:50:20ZMMDVM MMDVM HS Hat 433.4500/433.4500 CC1
EA1RCG 43.09.45N 005.49.78WIN73CD 44.203km 197°SSW04:51:12ZGRUPO RADIO GALENA (GRG) 430.4500/430.4500 CC1(3EA1RCG-3)
ED1ZAD 43.07.90N 005.38.52WIN73ED 45.219km 177°S04:48:18ZED1ZAD-3 APRS Digi/Igate(3ED1ZAD-3)
EC1KV 43.34.01N 006.16.01WIN63UN 48.143km 274°W04:39:16Z VOLT.=13.7 V - TEMP.=??.? C(3EC1KV-1)

aprs.pl 5.0.011w DL3EL © 2006-2021 [7777268]